sensor_id;sensor_type;location;lat;lon;timestamp;P1;durP1;ratioP1;P2;durP2;ratioP2
52208;SDS011;38507;53.132;6.394;2022-10-26T00:00:28;16.20;;;6.72;;
52208;SDS011;38507;53.132;6.394;2022-10-26T00:02:54;16.38;;;7.25;;
52208;SDS011;38507;53.132;6.394;2022-10-26T00:05:21;11.80;;;7.40;;
52208;SDS011;38507;53.132;6.394;2022-10-26T00:07:47;18.90;;;8.07;;
52208;SDS011;38507;53.132;6.394;2022-10-26T00:10:13;13.68;;;8.02;;
52208;SDS011;38507;53.132;6.394;2022-10-26T00:12:39;18.70;;;8.40;;
52208;SDS011;38507;53.132;6.394;2022-10-26T00:15:05;12.57;;;6.95;;
52208;SDS011;38507;53.132;6.394;2022-10-26T00:17:32;16.25;;;7.65;;
52208;SDS011;38507;53.132;6.394;2022-10-26T00:19:57;14.05;;;8.15;;
52208;SDS011;38507;53.132;6.394;2022-10-26T00:22:24;15.77;;;7.63;;
52208;SDS011;38507;53.132;6.394;2022-10-26T00:24:51;13.55;;;7.75;;
52208;SDS011;38507;53.132;6.394;2022-10-26T00:27:16;13.35;;;8.05;;
52208;SDS011;38507;53.132;6.394;2022-10-26T00:29:42;12.63;;;7.35;;
52208;SDS011;38507;53.132;6.394;2022-10-26T00:32:08;16.02;;;8.32;;
52208;SDS011;38507;53.132;6.394;2022-10-26T00:34:34;12.60;;;7.95;;
52208;SDS011;38507;53.132;6.394;2022-10-26T00:36:59;22.38;;;7.60;;
52208;SDS011;38507;53.132;6.394;2022-10-26T00:39:25;15.75;;;7.88;;
52208;SDS011;38507;53.132;6.394;2022-10-26T00:41:50;14.10;;;8.15;;
52208;SDS011;38507;53.132;6.394;2022-10-26T00:47:17;17.08;;;7.95;;
52208;SDS011;38507;53.132;6.394;2022-10-26T00:49:53;15.25;;;8.13;;
52208;SDS011;38507;53.132;6.394;2022-10-26T00:52:21;18.73;;;8.73;;
52208;SDS011;38507;53.132;6.394;2022-10-26T00:54:49;13.10;;;8.05;;
52208;SDS011;38507;53.132;6.394;2022-10-26T00:57:15;16.70;;;8.20;;
52208;SDS011;38507;53.132;6.394;2022-10-26T00:59:42;14.00;;;8.65;;
52208;SDS011;38507;53.132;6.394;2022-10-26T01:02:09;13.98;;;8.27;;
52208;SDS011;38507;53.132;6.394;2022-10-26T01:04:35;12.52;;;8.27;;
52208;SDS011;38507;53.132;6.394;2022-10-26T01:07:02;16.67;;;8.43;;
52208;SDS011;38507;53.132;6.394;2022-10-26T01:09:29;12.40;;;8.63;;
52208;SDS011;38507;53.132;6.394;2022-10-26T01:11:56;16.77;;;9.13;;
52208;SDS011;38507;53.132;6.394;2022-10-26T01:14:22;15.07;;;8.85;;
52208;SDS011;38507;53.132;6.394;2022-10-26T01:27:39;18.63;;;8.63;;
52208;SDS011;38507;53.132;6.394;2022-10-26T01:33:05;17.08;;;9.10;;
52208;SDS011;38507;53.132;6.394;2022-10-26T01:35:43;14.90;;;9.50;;
52208;SDS011;38507;53.132;6.394;2022-10-26T01:41:30;13.13;;;9.45;;
52208;SDS011;38507;53.132;6.394;2022-10-26T01:44:01;16.77;;;8.70;;
52208;SDS011;38507;53.132;6.394;2022-10-26T01:46:35;14.85;;;9.73;;
52208;SDS011;38507;53.132;6.394;2022-10-26T01:49:06;20.13;;;9.45;;
52208;SDS011;38507;53.132;6.394;2022-10-26T01:51:34;18.33;;;9.63;;
52208;SDS011;38507;53.132;6.394;2022-10-26T01:54:01;17.48;;;9.15;;
52208;SDS011;38507;53.132;6.394;2022-10-26T01:56:28;15.45;;;9.15;;
52208;SDS011;38507;53.132;6.394;2022-10-26T01:59:00;20.00;;;8.80;;
52208;SDS011;38507;53.132;6.394;2022-10-26T02:04:24;18.63;;;10.43;;
52208;SDS011;38507;53.132;6.394;2022-10-26T02:07:17;20.98;;;10.88;;
52208;SDS011;38507;53.132;6.394;2022-10-26T02:12:56;16.10;;;9.20;;
52208;SDS011;38507;53.132;6.394;2022-10-26T02:20:52;19.52;;;9.93;;
52208;SDS011;38507;53.132;6.394;2022-10-26T02:23:22;19.52;;;9.70;;
52208;SDS011;38507;53.132;6.394;2022-10-26T02:25:50;15.75;;;9.35;;
52208;SDS011;38507;53.132;6.394;2022-10-26T02:28:21;15.88;;;9.25;;
52208;SDS011;38507;53.132;6.394;2022-10-26T02:30:57;16.05;;;10.13;;
52208;SDS011;38507;53.132;6.394;2022-10-26T02:33:24;19.33;;;10.35;;
52208;SDS011;38507;53.132;6.394;2022-10-26T02:35:55;17.05;;;9.88;;
52208;SDS011;38507;53.132;6.394;2022-10-26T02:38:25;16.17;;;9.75;;
52208;SDS011;38507;53.132;6.394;2022-10-26T02:40:54;17.33;;;9.52;;
52208;SDS011;38507;53.132;6.394;2022-10-26T02:43:20;16.80;;;8.93;;
52208;SDS011;38507;53.132;6.394;2022-10-26T02:45:53;19.42;;;9.25;;
52208;SDS011;38507;53.132;6.394;2022-10-26T02:48:23;17.80;;;9.68;;
52208;SDS011;38507;53.132;6.394;2022-10-26T02:50:56;15.18;;;9.63;;
52208;SDS011;38507;53.132;6.394;2022-10-26T02:53:31;13.27;;;9.77;;
52208;SDS011;38507;53.132;6.394;2022-10-26T02:56:09;13.88;;;9.65;;
52208;SDS011;38507;53.132;6.394;2022-10-26T02:58:42;16.77;;;9.27;;
52208;SDS011;38507;53.132;6.394;2022-10-26T03:01:13;16.70;;;8.48;;
52208;SDS011;38507;53.132;6.394;2022-10-26T03:03:39;14.55;;;9.35;;
52208;SDS011;38507;53.132;6.394;2022-10-26T03:06:05;16.52;;;9.32;;
52208;SDS011;38507;53.132;6.394;2022-10-26T03:08:31;15.60;;;9.05;;
52208;SDS011;38507;53.132;6.394;2022-10-26T03:10:56;15.30;;;9.07;;
52208;SDS011;38507;53.132;6.394;2022-10-26T03:13:22;12.95;;;8.88;;
52208;SDS011;38507;53.132;6.394;2022-10-26T03:15:47;20.65;;;9.93;;
52208;SDS011;38507;53.132;6.394;2022-10-26T03:18:13;17.20;;;9.18;;
52208;SDS011;38507;53.132;6.394;2022-10-26T03:20:39;17.00;;;10.70;;
52208;SDS011;38507;53.132;6.394;2022-10-26T03:23:07;20.25;;;9.57;;
52208;SDS011;38507;53.132;6.394;2022-10-26T03:25:33;21.50;;;10.18;;
52208;SDS011;38507;53.132;6.394;2022-10-26T03:28:02;15.95;;;9.40;;
52208;SDS011;38507;53.132;6.394;2022-10-26T03:30:29;22.83;;;10.15;;
52208;SDS011;38507;53.132;6.394;2022-10-26T03:32:55;19.40;;;10.73;;
52208;SDS011;38507;53.132;6.394;2022-10-26T03:35:21;18.23;;;11.02;;
52208;SDS011;38507;53.132;6.394;2022-10-26T03:37:47;19.02;;;10.30;;
52208;SDS011;38507;53.132;6.394;2022-10-26T03:40:13;19.27;;;11.38;;
52208;SDS011;38507;53.132;6.394;2022-10-26T03:42:39;18.13;;;10.50;;
52208;SDS011;38507;53.132;6.394;2022-10-26T03:45:05;16.83;;;10.35;;
52208;SDS011;38507;53.132;6.394;2022-10-26T03:47:31;18.80;;;10.70;;
52208;SDS011;38507;53.132;6.394;2022-10-26T03:49:57;17.20;;;10.82;;
52208;SDS011;38507;53.132;6.394;2022-10-26T03:52:23;22.45;;;11.98;;
52208;SDS011;38507;53.132;6.394;2022-10-26T03:54:49;19.95;;;11.13;;
52208;SDS011;38507;53.132;6.394;2022-10-26T03:57:15;17.67;;;11.00;;
52208;SDS011;38507;53.132;6.394;2022-10-26T03:59:41;20.00;;;12.20;;
52208;SDS011;38507;53.132;6.394;2022-10-26T04:02:07;20.55;;;11.82;;
52208;SDS011;38507;53.132;6.394;2022-10-26T04:04:33;18.15;;;11.30;;
52208;SDS011;38507;53.132;6.394;2022-10-26T04:06:58;20.77;;;12.05;;
52208;SDS011;38507;53.132;6.394;2022-10-26T04:09:24;19.65;;;11.55;;
52208;SDS011;38507;53.132;6.394;2022-10-26T04:11:49;22.13;;;11.82;;
52208;SDS011;38507;53.132;6.394;2022-10-26T04:14:15;19.33;;;12.10;;
52208;SDS011;38507;53.132;6.394;2022-10-26T04:16:41;21.65;;;12.88;;
52208;SDS011;38507;53.132;6.394;2022-10-26T04:19:06;19.25;;;12.15;;
52208;SDS011;38507;53.132;6.394;2022-10-26T04:21:32;25.45;;;13.27;;
52208;SDS011;38507;53.132;6.394;2022-10-26T04:23:59;20.75;;;11.75;;
52208;SDS011;38507;53.132;6.394;2022-10-26T04:26:25;20.65;;;11.93;;
52208;SDS011;38507;53.132;6.394;2022-10-26T04:28:51;19.77;;;12.35;;
52208;SDS011;38507;53.132;6.394;2022-10-26T04:31:16;19.20;;;13.13;;
52208;SDS011;38507;53.132;6.394;2022-10-26T04:33:42;20.55;;;12.77;;
52208;SDS011;38507;53.132;6.394;2022-10-26T04:36:08;27.42;;;13.05;;
52208;SDS011;38507;53.132;6.394;2022-10-26T04:38:33;19.83;;;14.23;;
52208;SDS011;38507;53.132;6.394;2022-10-26T04:40:59;21.63;;;13.63;;
52208;SDS011;38507;53.132;6.394;2022-10-26T04:43:24;19.73;;;13.10;;
52208;SDS011;38507;53.132;6.394;2022-10-26T04:45:53;21.60;;;13.75;;
52208;SDS011;38507;53.132;6.394;2022-10-26T04:48:22;24.85;;;14.02;;
52208;SDS011;38507;53.132;6.394;2022-10-26T04:50:47;23.02;;;14.25;;
52208;SDS011;38507;53.132;6.394;2022-10-26T04:53:13;22.55;;;14.20;;
52208;SDS011;38507;53.132;6.394;2022-10-26T04:55:39;21.83;;;14.45;;
52208;SDS011;38507;53.132;6.394;2022-10-26T04:58:05;25.80;;;14.57;;
52208;SDS011;38507;53.132;6.394;2022-10-26T05:00:31;22.40;;;14.80;;
52208;SDS011;38507;53.132;6.394;2022-10-26T05:03:15;24.40;;;14.70;;
52208;SDS011;38507;53.132;6.394;2022-10-26T05:05:40;26.65;;;14.57;;
52208;SDS011;38507;53.132;6.394;2022-10-26T05:08:06;20.63;;;14.88;;
52208;SDS011;38507;53.132;6.394;2022-10-26T05:10:32;25.90;;;16.52;;
52208;SDS011;38507;53.132;6.394;2022-10-26T05:12:58;23.73;;;14.25;;
52208;SDS011;38507;53.132;6.394;2022-10-26T05:15:24;24.75;;;15.00;;
52208;SDS011;38507;53.132;6.394;2022-10-26T05:17:57;24.23;;;14.82;;
52208;SDS011;38507;53.132;6.394;2022-10-26T05:20:26;24.40;;;14.73;;
52208;SDS011;38507;53.132;6.394;2022-10-26T05:23:02;27.58;;;14.77;;
52208;SDS011;38507;53.132;6.394;2022-10-26T05:25:30;27.88;;;14.35;;
52208;SDS011;38507;53.132;6.394;2022-10-26T05:27:58;21.20;;;14.32;;
52208;SDS011;38507;53.132;6.394;2022-10-26T05:30:25;26.52;;;14.10;;
52208;SDS011;38507;53.132;6.394;2022-10-26T05:32:52;20.58;;;13.23;;
52208;SDS011;38507;53.132;6.394;2022-10-26T05:35:22;22.60;;;13.73;;
52208;SDS011;38507;53.132;6.394;2022-10-26T05:37:48;26.52;;;14.88;;
52208;SDS011;38507;53.132;6.394;2022-10-26T05:40:13;28.02;;;16.58;;
52208;SDS011;38507;53.132;6.394;2022-10-26T05:42:40;24.15;;;15.63;;
52208;SDS011;38507;53.132;6.394;2022-10-26T05:45:06;25.60;;;14.60;;
52208;SDS011;38507;53.132;6.394;2022-10-26T05:47:32;23.20;;;14.82;;
52208;SDS011;38507;53.132;6.394;2022-10-26T05:50:03;24.15;;;15.00;;
52208;SDS011;38507;53.132;6.394;2022-10-26T05:52:29;25.88;;;14.18;;
52208;SDS011;38507;53.132;6.394;2022-10-26T05:54:54;26.52;;;14.90;;
52208;SDS011;38507;53.132;6.394;2022-10-26T05:57:20;22.35;;;14.07;;
52208;SDS011;38507;53.132;6.394;2022-10-26T05:59:46;22.02;;;13.55;;
52208;SDS011;38507;53.132;6.394;2022-10-26T06:02:15;27.67;;;15.57;;
52208;SDS011;38507;53.132;6.394;2022-10-26T06:04:51;23.50;;;13.55;;
52208;SDS011;38507;53.132;6.394;2022-10-26T06:07:21;23.58;;;14.50;;
52208;SDS011;38507;53.132;6.394;2022-10-26T06:09:47;22.38;;;15.05;;
52208;SDS011;38507;53.132;6.394;2022-10-26T06:12:13;24.70;;;15.18;;
52208;SDS011;38507;53.132;6.394;2022-10-26T06:14:40;22.25;;;14.27;;
52208;SDS011;38507;53.132;6.394;2022-10-26T06:25:33;22.75;;;13.13;;
52208;SDS011;38507;53.132;6.394;2022-10-26T06:28:22;24.48;;;13.07;;
52208;SDS011;38507;53.132;6.394;2022-10-26T06:31:04;25.42;;;13.50;;
52208;SDS011;38507;53.132;6.394;2022-10-26T06:33:29;19.45;;;12.35;;
52208;SDS011;38507;53.132;6.394;2022-10-26T06:38:30;24.17;;;12.55;;
52208;SDS011;38507;53.132;6.394;2022-10-26T06:40:58;20.15;;;12.80;;
52208;SDS011;38507;53.132;6.394;2022-10-26T06:43:26;22.30;;;13.45;;
52208;SDS011;38507;53.132;6.394;2022-10-26T06:48:24;23.98;;;12.90;;
52208;SDS011;38507;53.132;6.394;2022-10-26T06:50:53;21.95;;;12.55;;
52208;SDS011;38507;53.132;6.394;2022-10-26T06:53:36;18.25;;;12.27;;
52208;SDS011;38507;53.132;6.394;2022-10-26T06:56:08;22.90;;;12.20;;
52208;SDS011;38507;53.132;6.394;2022-10-26T06:58:36;21.08;;;12.68;;
52208;SDS011;38507;53.132;6.394;2022-10-26T07:01:03;16.08;;;11.55;;
52208;SDS011;38507;53.132;6.394;2022-10-26T07:03:29;21.05;;;11.93;;
52208;SDS011;38507;53.132;6.394;2022-10-26T07:05:55;19.27;;;10.98;;
52208;SDS011;38507;53.132;6.394;2022-10-26T07:08:20;19.83;;;11.50;;
52208;SDS011;38507;53.132;6.394;2022-10-26T07:10:46;18.52;;;11.55;;
52208;SDS011;38507;53.132;6.394;2022-10-26T07:13:12;16.73;;;10.45;;
52208;SDS011;38507;53.132;6.394;2022-10-26T07:15:38;17.77;;;10.50;;
52208;SDS011;38507;53.132;6.394;2022-10-26T07:18:05;15.27;;;11.02;;
52208;SDS011;38507;53.132;6.394;2022-10-26T07:20:34;17.42;;;11.00;;
52208;SDS011;38507;53.132;6.394;2022-10-26T07:23:05;23.38;;;11.55;;
52208;SDS011;38507;53.132;6.394;2022-10-26T07:25:31;25.45;;;11.27;;
52208;SDS011;38507;53.132;6.394;2022-10-26T07:27:58;20.17;;;11.20;;
52208;SDS011;38507;53.132;6.394;2022-10-26T07:30:28;19.88;;;10.63;;
52208;SDS011;38507;53.132;6.394;2022-10-26T07:33:08;16.50;;;10.90;;
52208;SDS011;38507;53.132;6.394;2022-10-26T07:35:35;20.95;;;10.60;;
52208;SDS011;38507;53.132;6.394;2022-10-26T07:38:00;18.13;;;10.38;;
52208;SDS011;38507;53.132;6.394;2022-10-26T07:40:27;19.15;;;10.88;;
52208;SDS011;38507;53.132;6.394;2022-10-26T07:42:55;20.08;;;10.52;;
52208;SDS011;38507;53.132;6.394;2022-10-26T07:45:22;13.43;;;9.85;;
52208;SDS011;38507;53.132;6.394;2022-10-26T07:47:48;16.35;;;10.15;;
52208;SDS011;38507;53.132;6.394;2022-10-26T07:50:14;14.13;;;9.80;;
52208;SDS011;38507;53.132;6.394;2022-10-26T07:52:40;18.55;;;9.20;;
52208;SDS011;38507;53.132;6.394;2022-10-26T07:55:10;19.02;;;9.73;;
52208;SDS011;38507;53.132;6.394;2022-10-26T07:57:36;18.25;;;8.88;;
52208;SDS011;38507;53.132;6.394;2022-10-26T08:00:03;15.00;;;7.90;;
52208;SDS011;38507;53.132;6.394;2022-10-26T08:02:30;12.65;;;7.18;;
52208;SDS011;38507;53.132;6.394;2022-10-26T08:04:56;16.08;;;7.88;;
52208;SDS011;38507;53.132;6.394;2022-10-26T08:07:22;12.98;;;7.13;;
52208;SDS011;38507;53.132;6.394;2022-10-26T08:09:49;13.00;;;6.75;;
52208;SDS011;38507;53.132;6.394;2022-10-26T08:12:15;12.43;;;7.30;;
52208;SDS011;38507;53.132;6.394;2022-10-26T08:14:41;14.82;;;7.90;;
52208;SDS011;38507;53.132;6.394;2022-10-26T08:17:07;15.20;;;6.95;;
52208;SDS011;38507;53.132;6.394;2022-10-26T08:19:33;12.63;;;7.20;;
52208;SDS011;38507;53.132;6.394;2022-10-26T08:21:59;12.00;;;6.68;;
52208;SDS011;38507;53.132;6.394;2022-10-26T08:24:25;12.98;;;6.68;;
52208;SDS011;38507;53.132;6.394;2022-10-26T08:26:50;14.48;;;6.57;;
52208;SDS011;38507;53.132;6.394;2022-10-26T08:29:16;11.45;;;6.20;;
52208;SDS011;38507;53.132;6.394;2022-10-26T08:31:41;12.57;;;5.40;;
52208;SDS011;38507;53.132;6.394;2022-10-26T08:34:07;13.13;;;5.70;;
52208;SDS011;38507;53.132;6.394;2022-10-26T08:36:33;11.70;;;4.93;;
52208;SDS011;38507;53.132;6.394;2022-10-26T08:38:59;8.57;;;4.75;;
52208;SDS011;38507;53.132;6.394;2022-10-26T08:41:35;14.10;;;5.80;;
52208;SDS011;38507;53.132;6.394;2022-10-26T08:44:19;10.82;;;5.15;;
52208;SDS011;38507;53.132;6.394;2022-10-26T08:46:45;17.58;;;5.38;;
52208;SDS011;38507;53.132;6.394;2022-10-26T08:51:49;12.52;;;5.28;;
52208;SDS011;38507;53.132;6.394;2022-10-26T08:54:36;9.15;;;4.30;;
52208;SDS011;38507;53.132;6.394;2022-10-26T08:57:12;9.25;;;4.70;;
52208;SDS011;38507;53.132;6.394;2022-10-26T08:59:52;9.23;;;4.65;;
52208;SDS011;38507;53.132;6.394;2022-10-26T09:02:29;12.13;;;4.60;;
52208;SDS011;38507;53.132;6.394;2022-10-26T09:04:56;10.77;;;4.22;;
52208;SDS011;38507;53.132;6.394;2022-10-26T09:25:59;8.75;;;3.85;;
52208;SDS011;38507;53.132;6.394;2022-10-26T09:28:27;7.78;;;4.20;;
52208;SDS011;38507;53.132;6.394;2022-10-26T09:30:58;8.75;;;3.72;;
52208;SDS011;38507;53.132;6.394;2022-10-26T09:33:25;10.05;;;4.32;;
52208;SDS011;38507;53.132;6.394;2022-10-26T09:38:30;14.23;;;4.20;;
52208;SDS011;38507;53.132;6.394;2022-10-26T09:43:55;10.40;;;4.10;;
52208;SDS011;38507;53.132;6.394;2022-10-26T09:49:43;9.00;;;3.63;;
52208;SDS011;38507;53.132;6.394;2022-10-26T09:52:15;8.02;;;3.70;;
52208;SDS011;38507;53.132;6.394;2022-10-26T09:54:41;10.60;;;3.67;;
52208;SDS011;38507;53.132;6.394;2022-10-26T09:57:07;7.60;;;3.42;;
52208;SDS011;38507;53.132;6.394;2022-10-26T09:59:34;9.80;;;3.63;;
52208;SDS011;38507;53.132;6.394;2022-10-26T10:05:02;7.03;;;3.00;;
52208;SDS011;38507;53.132;6.394;2022-10-26T10:07:44;11.88;;;3.72;;
52208;SDS011;38507;53.132;6.394;2022-10-26T10:10:19;8.90;;;3.30;;
52208;SDS011;38507;53.132;6.394;2022-10-26T10:12:46;6.82;;;3.35;;
52208;SDS011;38507;53.132;6.394;2022-10-26T10:15:17;8.07;;;3.15;;
52208;SDS011;38507;53.132;6.394;2022-10-26T10:17:48;8.77;;;3.20;;
52208;SDS011;38507;53.132;6.394;2022-10-26T10:20:28;13.15;;;3.85;;
52208;SDS011;38507;53.132;6.394;2022-10-26T10:22:58;6.05;;;2.97;;
52208;SDS011;38507;53.132;6.394;2022-10-26T10:25:35;10.27;;;3.50;;
52208;SDS011;38507;53.132;6.394;2022-10-26T10:28:07;8.38;;;2.70;;
52208;SDS011;38507;53.132;6.394;2022-10-26T10:30:55;7.60;;;3.05;;
52208;SDS011;38507;53.132;6.394;2022-10-26T10:33:33;7.18;;;2.92;;
52208;SDS011;38507;53.132;6.394;2022-10-26T10:36:00;8.52;;;2.75;;
52208;SDS011;38507;53.132;6.394;2022-10-26T10:38:27;8.38;;;2.60;;
52208;SDS011;38507;53.132;6.394;2022-10-26T10:40:57;7.97;;;2.72;;
52208;SDS011;38507;53.132;6.394;2022-10-26T10:43:24;8.45;;;2.80;;
52208;SDS011;38507;53.132;6.394;2022-10-26T10:45:52;9.05;;;2.63;;
52208;SDS011;38507;53.132;6.394;2022-10-26T10:48:22;7.88;;;2.42;;
52208;SDS011;38507;53.132;6.394;2022-10-26T10:53:42;10.35;;;1.98;;
52208;SDS011;38507;53.132;6.394;2022-10-26T10:59:09;6.15;;;1.90;;
52208;SDS011;38507;53.132;6.394;2022-10-26T11:01:43;5.43;;;1.63;;
52208;SDS011;38507;53.132;6.394;2022-10-26T11:07:03;6.57;;;1.73;;
52208;SDS011;38507;53.132;6.394;2022-10-26T11:09:32;6.32;;;2.20;;
52208;SDS011;38507;53.132;6.394;2022-10-26T11:12:06;6.15;;;2.30;;
52208;SDS011;38507;53.132;6.394;2022-10-26T11:14:43;6.53;;;1.88;;
52208;SDS011;38507;53.132;6.394;2022-10-26T11:17:17;8.68;;;1.75;;
52208;SDS011;38507;53.132;6.394;2022-10-26T11:22:23;7.75;;;2.25;;
52208;SDS011;38507;53.132;6.394;2022-10-26T11:29:58;6.07;;;1.92;;
52208;SDS011;38507;53.132;6.394;2022-10-26T11:37:52;5.53;;;1.60;;
52208;SDS011;38507;53.132;6.394;2022-10-26T11:43:16;6.57;;;1.63;;
52208;SDS011;38507;53.132;6.394;2022-10-26T11:48:38;4.55;;;2.00;;
52208;SDS011;38507;53.132;6.394;2022-10-26T11:51:17;8.23;;;2.08;;
52208;SDS011;38507;53.132;6.394;2022-10-26T11:53:57;9.88;;;2.20;;
52208;SDS011;38507;53.132;6.394;2022-10-26T11:56:35;6.43;;;1.87;;
52208;SDS011;38507;53.132;6.394;2022-10-26T11:59:13;6.82;;;2.00;;
52208;SDS011;38507;53.132;6.394;2022-10-26T12:01:50;7.88;;;1.90;;
52208;SDS011;38507;53.132;6.394;2022-10-26T12:04:19;6.85;;;2.42;;
52208;SDS011;38507;53.132;6.394;2022-10-26T12:06:48;8.68;;;2.42;;
52208;SDS011;38507;53.132;6.394;2022-10-26T12:09:22;6.95;;;2.30;;
52208;SDS011;38507;53.132;6.394;2022-10-26T12:12:06;9.07;;;2.63;;
52208;SDS011;38507;53.132;6.394;2022-10-26T12:14:54;11.07;;;3.25;;
52208;SDS011;38507;53.132;6.394;2022-10-26T12:17:24;5.72;;;2.60;;
52208;SDS011;38507;53.132;6.394;2022-10-26T12:22:30;7.68;;;2.53;;
52208;SDS011;38507;53.132;6.394;2022-10-26T12:50:17;7.90;;;2.80;;
52208;SDS011;38507;53.132;6.394;2022-10-26T12:52:53;10.90;;;3.23;;
52208;SDS011;38507;53.132;6.394;2022-10-26T13:06:07;14.80;;;4.90;;
52208;SDS011;38507;53.132;6.394;2022-10-26T13:08:40;10.55;;;4.13;;
52208;SDS011;38507;53.132;6.394;2022-10-26T13:11:27;12.02;;;4.65;;
52208;SDS011;38507;53.132;6.394;2022-10-26T13:13:56;11.18;;;4.00;;
52208;SDS011;38507;53.132;6.394;2022-10-26T13:16:25;12.10;;;4.25;;
52208;SDS011;38507;53.132;6.394;2022-10-26T13:18:52;12.10;;;4.28;;
52208;SDS011;38507;53.132;6.394;2022-10-26T13:21:19;15.75;;;4.75;;
52208;SDS011;38507;53.132;6.394;2022-10-26T13:26:23;10.35;;;4.57;;
52208;SDS011;38507;53.132;6.394;2022-10-26T13:28:51;12.43;;;4.43;;
52208;SDS011;38507;53.132;6.394;2022-10-26T13:34:03;13.48;;;4.85;;
52208;SDS011;38507;53.132;6.394;2022-10-26T13:36:44;11.55;;;4.57;;
52208;SDS011;38507;53.132;6.394;2022-10-26T13:39:19;17.77;;;5.10;;
52208;SDS011;38507;53.132;6.394;2022-10-26T13:41:48;13.77;;;5.50;;
52208;SDS011;38507;53.132;6.394;2022-10-26T13:46:53;11.80;;;5.10;;
52208;SDS011;38507;53.132;6.394;2022-10-26T13:49:24;15.40;;;4.90;;
52208;SDS011;38507;53.132;6.394;2022-10-26T13:51:59;12.18;;;4.95;;
52208;SDS011;38507;53.132;6.394;2022-10-26T13:57:21;11.63;;;4.55;;
52208;SDS011;38507;53.132;6.394;2022-10-26T13:59:59;10.38;;;4.43;;
52208;SDS011;38507;53.132;6.394;2022-10-26T14:02:53;7.93;;;3.88;;
52208;SDS011;38507;53.132;6.394;2022-10-26T14:05:19;15.25;;;4.50;;
52208;SDS011;38507;53.132;6.394;2022-10-26T14:07:55;11.15;;;4.32;;
52208;SDS011;38507;53.132;6.394;2022-10-26T14:10:24;12.50;;;4.03;;
52208;SDS011;38507;53.132;6.394;2022-10-26T14:12:57;11.85;;;4.03;;
52208;SDS011;38507;53.132;6.394;2022-10-26T14:15:26;10.73;;;4.38;;
52208;SDS011;38507;53.132;6.394;2022-10-26T14:17:57;10.53;;;4.00;;
52208;SDS011;38507;53.132;6.394;2022-10-26T14:20:25;14.70;;;4.30;;
52208;SDS011;38507;53.132;6.394;2022-10-26T14:22:52;9.25;;;4.22;;
52208;SDS011;38507;53.132;6.394;2022-10-26T14:25:22;7.30;;;3.50;;
52208;SDS011;38507;53.132;6.394;2022-10-26T14:27:50;7.80;;;3.60;;
52208;SDS011;38507;53.132;6.394;2022-10-26T14:30:24;9.05;;;3.92;;
52208;SDS011;38507;53.132;6.394;2022-10-26T14:32:56;14.57;;;3.83;;
52208;SDS011;38507;53.132;6.394;2022-10-26T14:35:31;9.85;;;4.43;;
52208;SDS011;38507;53.132;6.394;2022-10-26T14:38:04;10.32;;;4.28;;
52208;SDS011;38507;53.132;6.394;2022-10-26T14:40:42;10.20;;;4.22;;
52208;SDS011;38507;53.132;6.394;2022-10-26T14:43:10;10.35;;;5.05;;
52208;SDS011;38507;53.132;6.394;2022-10-26T14:45:48;8.32;;;4.57;;
52208;SDS011;38507;53.132;6.394;2022-10-26T14:48:22;9.98;;;4.80;;
52208;SDS011;38507;53.132;6.394;2022-10-26T14:54:00;9.68;;;5.97;;
52208;SDS011;38507;53.132;6.394;2022-10-26T14:59:08;10.55;;;5.90;;
52208;SDS011;38507;53.132;6.394;2022-10-26T15:04:57;8.77;;;6.72;;
52208;SDS011;38507;53.132;6.394;2022-10-26T15:07:40;10.05;;;7.65;;
52208;SDS011;38507;53.132;6.394;2022-10-26T15:12:58;16.50;;;8.63;;
52208;SDS011;38507;53.132;6.394;2022-10-26T15:15:53;14.13;;;8.32;;
52208;SDS011;38507;53.132;6.394;2022-10-26T15:18:25;12.23;;;7.90;;
52208;SDS011;38507;53.132;6.394;2022-10-26T15:20:53;13.65;;;8.45;;
52208;SDS011;38507;53.132;6.394;2022-10-26T15:23:20;12.50;;;8.15;;
52208;SDS011;38507;53.132;6.394;2022-10-26T15:25:50;18.40;;;8.23;;
52208;SDS011;38507;53.132;6.394;2022-10-26T15:31:05;12.77;;;8.38;;
52208;SDS011;38507;53.132;6.394;2022-10-26T15:33:34;14.05;;;8.23;;
52208;SDS011;38507;53.132;6.394;2022-10-26T15:36:12;13.00;;;8.82;;
52208;SDS011;38507;53.132;6.394;2022-10-26T15:38:42;16.80;;;7.57;;
52208;SDS011;38507;53.132;6.394;2022-10-26T15:41:12;10.52;;;7.50;;
52208;SDS011;38507;53.132;6.394;2022-10-26T15:43:40;15.18;;;7.40;;
52208;SDS011;38507;53.132;6.394;2022-10-26T15:46:06;11.85;;;6.97;;
52208;SDS011;38507;53.132;6.394;2022-10-26T15:48:32;9.27;;;6.78;;
52208;SDS011;38507;53.132;6.394;2022-10-26T15:51:00;11.88;;;6.40;;
52208;SDS011;38507;53.132;6.394;2022-10-26T15:53:25;11.00;;;6.22;;
52208;SDS011;38507;53.132;6.394;2022-10-26T15:55:52;8.80;;;6.38;;
52208;SDS011;38507;53.132;6.394;2022-10-26T15:58:20;18.65;;;6.30;;
52208;SDS011;38507;53.132;6.394;2022-10-26T16:00:46;17.40;;;6.25;;
52208;SDS011;38507;53.132;6.394;2022-10-26T16:03:12;11.30;;;5.68;;
52208;SDS011;38507;53.132;6.394;2022-10-26T16:05:41;12.43;;;5.80;;
52208;SDS011;38507;53.132;6.394;2022-10-26T16:08:16;13.68;;;5.70;;
52208;SDS011;38507;53.132;6.394;2022-10-26T16:10:42;10.48;;;4.93;;
52208;SDS011;38507;53.132;6.394;2022-10-26T16:13:11;12.70;;;4.90;;
52208;SDS011;38507;53.132;6.394;2022-10-26T16:15:38;9.20;;;5.47;;
52208;SDS011;38507;53.132;6.394;2022-10-26T16:18:04;11.23;;;5.22;;
52208;SDS011;38507;53.132;6.394;2022-10-26T16:20:29;10.60;;;4.80;;
52208;SDS011;38507;53.132;6.394;2022-10-26T16:22:55;11.00;;;5.13;;
52208;SDS011;38507;53.132;6.394;2022-10-26T16:25:24;9.40;;;4.75;;
52208;SDS011;38507;53.132;6.394;2022-10-26T16:27:50;14.45;;;5.10;;
52208;SDS011;38507;53.132;6.394;2022-10-26T16:30:17;10.43;;;5.43;;
52208;SDS011;38507;53.132;6.394;2022-10-26T16:32:43;9.70;;;4.85;;
52208;SDS011;38507;53.132;6.394;2022-10-26T16:35:09;9.70;;;5.10;;
52208;SDS011;38507;53.132;6.394;2022-10-26T16:37:35;14.10;;;5.25;;
52208;SDS011;38507;53.132;6.394;2022-10-26T16:40:02;10.95;;;4.72;;
52208;SDS011;38507;53.132;6.394;2022-10-26T16:42:29;14.27;;;5.28;;
52208;SDS011;38507;53.132;6.394;2022-10-26T16:44:55;8.50;;;4.57;;
52208;SDS011;38507;53.132;6.394;2022-10-26T16:47:21;8.15;;;4.55;;
52208;SDS011;38507;53.132;6.394;2022-10-26T16:49:47;12.70;;;4.38;;
52208;SDS011;38507;53.132;6.394;2022-10-26T16:52:12;9.57;;;4.78;;
52208;SDS011;38507;53.132;6.394;2022-10-26T16:54:38;9.40;;;4.70;;
52208;SDS011;38507;53.132;6.394;2022-10-26T16:57:04;11.98;;;4.80;;
52208;SDS011;38507;53.132;6.394;2022-10-26T16:59:29;8.23;;;4.90;;
52208;SDS011;38507;53.132;6.394;2022-10-26T17:01:55;10.75;;;5.00;;
52208;SDS011;38507;53.132;6.394;2022-10-26T17:04:21;8.82;;;4.40;;
52208;SDS011;38507;53.132;6.394;2022-10-26T17:06:46;8.27;;;4.30;;
52208;SDS011;38507;53.132;6.394;2022-10-26T17:09:12;12.10;;;4.72;;
52208;SDS011;38507;53.132;6.394;2022-10-26T17:11:38;10.63;;;4.53;;
52208;SDS011;38507;53.132;6.394;2022-10-26T17:14:03;11.07;;;4.75;;
52208;SDS011;38507;53.132;6.394;2022-10-26T17:16:29;9.45;;;4.90;;
52208;SDS011;38507;53.132;6.394;2022-10-26T17:18:55;8.52;;;4.38;;
52208;SDS011;38507;53.132;6.394;2022-10-26T17:21:27;12.40;;;4.28;;
52208;SDS011;38507;53.132;6.394;2022-10-26T17:23:56;12.48;;;4.60;;
52208;SDS011;38507;53.132;6.394;2022-10-26T17:26:22;10.88;;;4.50;;
52208;SDS011;38507;53.132;6.394;2022-10-26T17:28:52;13.50;;;5.07;;
52208;SDS011;38507;53.132;6.394;2022-10-26T17:31:19;10.27;;;4.38;;
52208;SDS011;38507;53.132;6.394;2022-10-26T17:33:46;10.48;;;4.90;;